createdAt,value
2022-09-03T00:00:46.784Z,96647.66
2022-09-03T00:05:46.896Z,96641.53
2022-09-03T00:10:52.447Z,96656.75
2022-09-03T00:15:45.880Z,96650.47
2022-09-03T00:20:44.523Z,96657.59
2022-09-03T00:25:45.899Z,96641.22
2022-09-03T00:30:41.408Z,96647.78
2022-09-03T00:35:42.213Z,96650.31
2022-09-03T00:41:02.070Z,96654.44
2022-09-03T00:46:07.515Z,96647.00
2022-09-03T00:51:25.580Z,96659.91
2022-09-03T00:56:31.403Z,96667.69
2022-09-03T01:01:36.308Z,96672.78
2022-09-03T01:06:44.771Z,96674.50
2022-09-03T01:11:59.731Z,96687.09
2022-09-03T01:17:04.051Z,96696.41
2022-09-03T01:22:26.010Z,96707.34
2022-09-03T01:27:44.004Z,96727.75
2022-09-03T01:32:50.132Z,96715.94
2022-09-03T01:38:02.804Z,96718.97
2022-09-03T01:43:24.260Z,96726.84
2022-09-03T01:48:44.584Z,96711.47
2022-09-03T01:54:21.076Z,96709.53
2022-09-03T01:59:24.912Z,96708.47
2022-09-03T02:04:23.586Z,96713.00
2022-09-03T02:09:17.132Z,96709.00
2022-09-03T02:14:10.868Z,96710.16
2022-09-03T02:19:10.915Z,96710.00
2022-09-03T02:24:09.147Z,96718.97
2022-09-03T02:29:03.920Z,96713.97
2022-09-03T02:33:59.314Z,96719.28
2022-09-03T02:38:52.660Z,96711.16
2022-09-03T02:43:56.116Z,96696.22
2022-09-03T02:48:49.558Z,96707.00
2022-09-03T02:53:43.422Z,96703.34
2022-09-03T02:58:36.721Z,96700.00
2022-09-03T03:03:31.716Z,96715.75
2022-09-03T03:08:28.656Z,96719.22
2022-09-03T03:13:22.367Z,96725.13
2022-09-03T03:18:17.527Z,96719.22
2022-09-03T03:23:12.501Z,96711.25
2022-09-03T03:28:07.267Z,96714.88
2022-09-03T03:33:01.295Z,96722.81
2022-09-03T03:37:54.684Z,96718.84
2022-09-03T03:42:50.221Z,96716.91
2022-09-03T03:47:43.586Z,96718.69
2022-09-03T03:52:36.918Z,96728.59
2022-09-03T03:57:33.026Z,96742.31
2022-09-03T04:02:27.807Z,96739.19
2022-09-03T04:07:21.190Z,96748.34
2022-09-03T04:12:15.247Z,96760.44
2022-09-03T04:17:08.580Z,96766.72
2022-09-03T04:22:03.687Z,96762.56
2022-09-03T04:26:57.179Z,96765.03
2022-09-03T04:32:04.393Z,96763.91
2022-09-03T04:36:59.153Z,96770.22
2022-09-03T04:41:53.871Z,96777.53
2022-09-03T04:46:47.951Z,96784.63
2022-09-03T04:51:41.283Z,96784.41
2022-09-03T04:56:36.391Z,96780.63
2022-09-03T05:01:34.027Z,96771.38
2022-09-03T05:06:28.839Z,96773.56
2022-09-03T05:11:22.989Z,96767.06
2022-09-03T05:16:17.618Z,96765.22
2022-09-03T05:21:15.570Z,96765.56
2022-09-03T05:26:11.451Z,96757.31
2022-09-03T05:31:08.245Z,96763.91
2022-09-03T05:36:04.535Z,96756.25
2022-09-03T05:41:02.059Z,96767.66
2022-09-03T05:46:00.540Z,96760.22
2022-09-03T05:51:02.078Z,96759.44
2022-09-03T05:56:01.114Z,96771.88
2022-09-03T06:00:55.061Z,96775.56
2022-09-03T06:05:52.722Z,96766.59
2022-09-03T06:10:46.049Z,96774.59
2022-09-03T06:15:41.262Z,96774.31
2022-09-03T06:20:37.125Z,96773.31
2022-09-03T06:25:31.852Z,96781.94
2022-09-03T06:30:26.738Z,96770.31
2022-09-03T06:35:21.613Z,96766.69
2022-09-03T06:40:20.577Z,96764.38
2022-09-03T06:45:13.900Z,96766.19
2022-09-03T06:50:08.339Z,96752.94
2022-09-03T06:55:03.063Z,96740.19
2022-09-03T06:59:56.390Z,96741.50
2022-09-03T07:04:50.350Z,96745.97
2022-09-03T07:09:48.110Z,96751.09
2022-09-03T07:14:43.128Z,96744.78
2022-09-03T07:19:36.420Z,96730.03
2022-09-03T07:24:29.731Z,96736.63
2022-09-03T07:29:23.755Z,96741.63
2022-09-03T07:34:18.533Z,96728.47
2022-09-03T07:39:13.839Z,96736.09
2022-09-03T07:44:09.456Z,96727.13
2022-09-03T07:49:03.417Z,96723.13
2022-09-03T07:54:02.141Z,96732.78
2022-09-03T07:58:56.455Z,96738.31
2022-09-03T08:03:52.908Z,96731.78
2022-09-03T08:08:46.275Z,96734.53
2022-09-03T08:13:43.894Z,96741.41
2022-09-03T08:18:39.166Z,96755.59
2022-09-03T08:23:32.520Z,96765.81
2022-09-03T08:28:25.811Z,96767.72
2022-09-03T08:33:37.015Z,96774.81
2022-09-03T08:38:30.457Z,96769.59
2022-09-03T08:43:24.032Z,96762.78
2022-09-03T08:48:25.836Z,96772.34
2022-09-03T08:53:29.983Z,96773.78
2022-09-03T08:58:27.838Z,96783.63
2022-09-03T09:03:51.113Z,96782.47
2022-09-03T09:09:02.418Z,96768.66
2022-09-03T09:14:04.635Z,96778.03
2022-09-03T09:19:17.778Z,96793.72
2022-09-03T09:24:23.439Z,96800.03
2022-09-03T09:29:18.175Z,96790.72
2022-09-03T09:34:13.308Z,96793.41
2022-09-03T09:39:10.993Z,96778.84
2022-09-03T09:44:06.327Z,96776.63
2022-09-03T09:49:00.324Z,96786.00
2022-09-03T09:54:13.436Z,96778.31
2022-09-03T09:59:09.976Z,96775.06
2022-09-03T10:04:12.777Z,96775.31
2022-09-03T10:09:13.433Z,96781.91
2022-09-03T10:14:16.355Z,96815.19
2022-09-03T10:19:18.075Z,96843.81
2022-09-03T10:24:41.070Z,96872.00
2022-09-03T10:29:34.606Z,96870.84
2022-09-03T10:34:39.481Z,96875.53
2022-09-03T10:39:59.871Z,96874.56
2022-09-03T10:45:09.787Z,96866.66
2022-09-03T10:50:16.140Z,96856.34
2022-09-03T10:55:35.789Z,96852.22
2022-09-03T11:00:32.102Z,96843.81
2022-09-03T11:05:32.803Z,96846.06
2022-09-03T11:10:32.736Z,96849.31
2022-09-03T11:15:33.843Z,96820.56
2022-09-03T11:20:29.046Z,96825.91
2022-09-03T11:25:27.897Z,96830.06
2022-09-03T11:30:35.997Z,96834.56
2022-09-03T11:35:41.742Z,96832.16
2022-09-03T11:40:37.985Z,96825.09
2022-09-03T11:45:39.897Z,96831.53
2022-09-03T11:55:53.585Z,96858.38
2022-09-03T12:00:50.616Z,96857.34
2022-09-03T12:05:57.981Z,96858.03
2022-09-03T12:11:09.637Z,96847.97
2022-09-03T12:16:40.569Z,96845.69
2022-09-03T12:21:41.278Z,96851.03
2022-09-03T12:26:42.861Z,96839.00
2022-09-03T12:31:50.293Z,96836.94
2022-09-03T12:36:47.068Z,96831.81
2022-09-03T12:41:40.798Z,96838.16
2022-09-03T12:46:36.898Z,96846.16
2022-09-03T12:51:54.459Z,96849.38
2022-09-03T12:56:57.428Z,96842.44
2022-09-03T13:01:57.407Z,96836.53
2022-09-03T13:06:58.076Z,96837.16
2022-09-03T13:11:52.512Z,96824.84
2022-09-03T13:17:19.445Z,96817.47
2022-09-03T13:22:31.556Z,96821.44
2022-09-03T13:27:39.616Z,96820.56
2022-09-03T13:32:51.839Z,96823.03
2022-09-03T13:37:54.049Z,96821.38
2022-09-03T13:42:55.537Z,96818.00
2022-09-03T13:48:17.288Z,96812.66
2022-09-03T13:53:22.699Z,96800.22
2022-09-03T13:58:29.222Z,96797.88
2022-09-03T14:03:34.725Z,96806.78
2022-09-03T14:08:54.269Z,96802.28
2022-09-03T14:14:10.854Z,96793.84
2022-09-03T14:19:13.902Z,96795.47
2022-09-03T14:24:16.260Z,96791.47
2022-09-03T14:29:18.441Z,96800.88
2022-09-03T14:34:28.113Z,96806.19
2022-09-03T14:39:48.297Z,96796.41
2022-09-03T14:45:34.212Z,96793.00
2022-09-03T14:50:58.933Z,96790.66
2022-09-03T14:56:18.818Z,96778.63
2022-09-03T15:01:18.509Z,96778.22
2022-09-03T15:06:33.744Z,96765.16
2022-09-03T15:11:33.346Z,96771.72
2022-09-03T15:16:46.877Z,96767.94
2022-09-03T15:22:04.177Z,96772.28
2022-09-03T15:27:20.891Z,96768.97
2022-09-03T15:32:32.809Z,96767.56
2022-09-03T15:37:35.861Z,96773.66
2022-09-03T15:42:31.892Z,96776.53
2022-09-03T15:47:51.567Z,96778.38
2022-09-03T15:53:03.797Z,96771.66
2022-09-03T15:58:09.420Z,96776.25
2022-09-03T16:03:11.440Z,96788.78
2022-09-03T16:08:19.133Z,96781.78
2022-09-03T16:13:34.700Z,96787.97
2022-09-03T16:18:35.828Z,96793.56
2022-09-03T16:23:41.697Z,96786.19
2022-09-03T16:28:47.907Z,96782.69
2022-09-03T16:33:57.576Z,96796.44
2022-09-03T16:39:04.110Z,96797.31
2022-09-03T16:44:13.129Z,96807.34
2022-09-03T16:49:31.890Z,96809.09
2022-09-03T16:55:00.264Z,96814.84
2022-09-03T17:00:10.716Z,96817.19
2022-09-03T17:05:49.496Z,96813.72
2022-09-03T17:10:55.323Z,96802.97
2022-09-03T17:15:54.192Z,96808.25
2022-09-03T17:21:02.378Z,96811.84
2022-09-03T17:26:12.770Z,96819.28
2022-09-03T17:31:22.248Z,96813.41
2022-09-03T17:36:19.676Z,96805.69
2022-09-03T17:41:34.298Z,96814.47
2022-09-03T17:46:43.939Z,96806.09
2022-09-03T17:51:46.391Z,96811.38
2022-09-03T17:56:55.284Z,96821.09
2022-09-03T18:01:59.521Z,96822.19
2022-09-03T18:07:01.548Z,96823.47
2022-09-03T18:12:11.548Z,96817.97
2022-09-03T18:17:10.749Z,96818.25
2022-09-03T18:22:25.111Z,96839.34
2022-09-03T18:27:46.778Z,96849.56
2022-09-03T18:32:57.519Z,96849.34
2022-09-03T18:38:08.489Z,96851.34
2022-09-03T18:43:36.879Z,96871.72
2022-09-03T18:48:58.165Z,96863.91
2022-09-03T18:54:25.122Z,96882.13
2022-09-03T19:00:12.659Z,96887.47
2022-09-03T19:05:38.848Z,96894.72
2022-09-03T19:11:06.884Z,96897.09
2022-09-03T19:16:28.529Z,96897.75
2022-09-03T19:21:54.509Z,96901.41
2022-09-03T19:27:51.626Z,96889.47
2022-09-03T19:33:13.973Z,96892.44
2022-09-03T19:38:43.791Z,96902.88
2022-09-03T19:44:11.490Z,96904.19
2022-09-03T19:49:49.780Z,96904.25
2022-09-03T19:55:02.898Z,96917.31
2022-09-03T20:00:16.460Z,96923.44
2022-09-03T20:05:36.844Z,96925.59
2022-09-03T20:10:29.154Z,96932.91
2022-09-03T20:15:33.518Z,96929.78
2022-09-03T20:20:42.457Z,96932.56
2022-09-03T20:26:10.916Z,96949.66
2022-09-03T20:31:16.622Z,96952.81
2022-09-03T20:36:28.495Z,96944.84
2022-09-03T20:41:36.549Z,96950.28
2022-09-03T20:46:52.262Z,96950.13
2022-09-03T20:51:56.418Z,96952.44
2022-09-03T20:57:33.873Z,96958.19
2022-09-03T21:03:00.609Z,96955.53
2022-09-03T21:08:15.926Z,96959.31
2022-09-03T21:13:21.301Z,96954.72
2022-09-03T21:18:28.136Z,96964.03
2022-09-03T21:23:30.714Z,96968.69
2022-09-03T21:28:32.609Z,96967.81
2022-09-03T21:33:30.899Z,96980.66
2022-09-03T21:38:29.084Z,96975.53
2022-09-03T21:43:34.140Z,96980.06
2022-09-03T21:48:36.429Z,96978.56
2022-09-03T21:53:42.467Z,96980.72
2022-09-03T21:59:02.418Z,96990.44
2022-09-03T22:03:57.149Z,96992.91
2022-09-03T22:09:00.106Z,96999.94
2022-09-03T22:14:12.682Z,97008.06
2022-09-03T22:19:11.526Z,97008.19
2022-09-03T22:24:19.004Z,97009.81
2022-09-03T22:29:24.330Z,97012.53
2022-09-03T22:34:53.126Z,97007.78
2022-09-03T22:39:48.875Z,97012.81
2022-09-03T22:45:05.167Z,97016.03
2022-09-03T22:50:09.650Z,97017.41
2022-09-03T22:55:28.090Z,97024.81
2022-09-03T23:00:21.950Z,97027.44
2022-09-03T23:05:34.549Z,97022.97
2022-09-03T23:10:37.285Z,97034.09
2022-09-03T23:15:33.723Z,97035.84
2022-09-03T23:20:30.246Z,97031.91
2022-09-03T23:25:31.237Z,97044.81
2022-09-03T23:30:24.509Z,97036.34
2022-09-03T23:35:19.574Z,97037.19
2022-09-03T23:40:35.216Z,97050.81
2022-09-03T23:45:45.958Z,97047.19
2022-09-03T23:50:53.098Z,97052.38
2022-09-03T23:56:08.522Z,97057.31
